Aérodrome :
LOGIN :

S'inscrire | Disclaimer

   EN    FR    IT 

 










Légende :    VFR   VFR Marginal   IFR   IFR Intensif   IFR Très Intensif
Visi : 
Plafond : 
>= 8 km
>= 3000ft
5 à 8 km
1000 à 3000 ft
1500m à 5 km
500 à 1000 ft
800 à 1500m
200 à 500 ft
< 800m
< 200 ft
Symboles :   Orages  Brouillard  Fortes neiges  Fortes précipitations  Vent > 20 kt
SIGMETs :   Divers  Orages  Givrage  Turbulence  Onde Orograph.  Cendres Volcan.






- Altitude de l'aérodrome : 46 ft
- Code IATA : SNN


EINN - Shannon

DERNIER METAR :
  • 271730Z 23006KT 9999 FEW025 BKN200 07/01 Q1011 NOSIG

METARs EXPIRÉS :
  • 271700Z 23007KT 9999 FEW025 BKN250 07/01 Q1011 NOSIG
  • 271630Z 22009KT 9999 FEW040 BKN250 07/01 Q1010 NOSIG
  • 271600Z 25009KT 9999 FEW045 BKN250 08/M01 Q1010 NOSIG
  • 271530Z 26010KT 9999 FEW045 08/M01 Q1010 NOSIG
  • 271500Z 26012KT 9999 FEW045 08/M01 Q1010 NOSIG

TAF TAF EINN
Valide du 27 à 18h jusqu'au 28 à 18h UTC


271700Z 2718/2818 23008KT 9999 SCT025
BECMG 2718/2720 16006KT
BECMG 2801/2803 13012KT -RA SCT010 BKN015
BECMG 2805/2807 14016G27KT
TEMPO 2805/2808 5000 RA BKN010
TEMPO 2808/2811 4000 -RADZ BKN007
PROB40
TEMPO 2808/2811 2000 BKN004
BECMG 2809/2811 22014KT
TEMPO 2809/2814 22015G26KT
PROB40
TEMPO 2811/2818 5000 -DZ BKN010



MET'MAP, la Météo Aéronautique d'un coup d'oeil ! - Copyright ORBIFLY Décembre 2007 - Disclaimer

ORBIFLY MET'MAP TEAM :

Programmation & Développement : Alexandra Zaïnal
Sur une idée originale de : Baudouin d'Aumeries
Assistance à la programmation : Marc-Olivier Méhu
Soutien technique & logistique : Manuel Goepfert

Contact : metmap@orbifly.com




SOURCES & CREDITS :

   NOAA